Aviation Digital Data Service (ADDS)

Output produced by METARs form (2022 UTC 18 July 2018)
found at http://www.aviationweather.gov/adds/metars/
 
KMKT 181956Z AUTO VRB06KT 10SM FEW065 27/19 A3005 RMK AO2 SLP171 T02670189
KRST 181954Z 35003KT 10SM CLR 26/14 A3008 RMK AO2 SLP182 T02610144
KMSP 181953Z 13005KT 10SM FEW060 BKN300 27/15 A3005 RMK AO2 SLP172 T02670150